Time;durP1;ratioP1;P1;durP2;ratioP2;P2;SDS_P1;SDS_P2;PMS_P1;PMS_P2;Temp;Humidity;BMP_temperature;BMP_pressure;BME280_temperature;BME280_humidity;BME280_pressure;Samples;Min_cycle;Max_cycle;Signal;HPM_P1;HPM_P2
2022/04/24 00:01:13;;;;;;;;;;;;;;;12.67;43.51;100167.09;5068209;28;19919;-82
2022/04/24 00:03:38;;;;;;;;;;;;;;;12.62;43.67;100161.25;5065334;28;19912;-82
2022/04/24 00:06:03;;;;;;;;;;;;;;;12.58;43.31;100164.00;5067594;28;20369;-81
2022/04/24 00:08:28;;;;;;;;;;;;;;;12.51;43.88;100152.13;5070719;28;19970;-82
2022/04/24 00:10:53;;;;;;;;;;;;;;;12.47;43.94;100162.78;5066600;28;19912;-82
2022/04/24 00:13:19;;;;;;;;;;;;;;;12.40;43.94;100162.19;5070213;28;19935;-82
2022/04/24 00:15:44;;;;;;;;;;;;;;;12.36;43.96;100158.03;5068668;28;19995;-82
2022/04/24 00:18:09;;;;;;;;;;;;;;;12.30;44.08;100156.53;5071424;28;19947;-82
2022/04/24 00:20:35;;;;;;;;;;;;;;;12.24;44.35;100144.63;5067877;28;20535;-82
2022/04/24 00:23:00;;;;;;;;;;;;;;;12.20;44.05;100143.06;5071409;28;19965;-82
2022/04/24 00:25:25;;;;;;;;;;;;;;;12.15;44.51;100150.22;5072272;28;20023;-82
2022/04/24 00:27:50;;;;;;;;;;;;;;;12.11;44.75;100143.47;5073537;28;19912;-82
2022/04/24 00:30:16;;;;;;;;;;;;;;;12.08;44.48;100148.81;5069338;28;19912;-81
2022/04/24 00:32:41;;;;;;;;;;;;;;;12.07;44.49;100142.75;5074924;28;20003;-82
2022/04/24 00:35:06;;;;;;;;;;;;;;;12.01;44.63;100137.81;5071690;28;19912;-82
2022/04/24 00:37:31;;;;;;;;;;;;;;;11.99;44.63;100140.47;5073821;28;19920;-82
2022/04/24 00:39:56;;;;;;;;;;;;;;;11.95;44.61;100138.88;5068397;28;19919;-82
2022/04/24 00:42:21;;;;;;;;;;;;;;;11.94;44.94;100131.97;5073790;28;19956;-82
2022/04/24 00:44:47;;;;;;;;;;;;;;;11.93;44.95;100138.09;5073321;28;19927;-82
2022/04/24 00:47:20;;;;;;;;;;;;;;;11.90;44.96;100134.75;5069180;28;19912;-82
2022/04/24 00:49:45;;;;;;;;;;;;;;;11.87;44.76;100124.50;5072367;28;20358;-82
2022/04/24 00:52:11;;;;;;;;;;;;;;;11.86;45.11;100128.84;5069612;28;19918;-82
2022/04/24 00:54:36;;;;;;;;;;;;;;;11.81;45.00;100130.78;5074405;28;19958;-82
2022/04/24 00:57:02;;;;;;;;;;;;;;;11.77;45.27;100130.06;5071242;28;19916;-82
2022/04/24 00:59:27;;;;;;;;;;;;;;;11.74;45.30;100129.38;5072358;28;19935;-81
2022/04/24 01:01:52;;;;;;;;;;;;;;;11.67;45.92;100129.63;5071244;28;20263;-81
2022/04/24 01:04:18;;;;;;;;;;;;;;;11.61;45.80;100129.03;5069540;28;20379;-81
2022/04/24 01:06:43;;;;;;;;;;;;;;;11.52;45.86;100131.13;5070422;28;20003;-81
2022/04/24 01:09:09;;;;;;;;;;;;;;;11.45;45.81;100139.22;5068957;28;19912;-81
2022/04/24 01:11:34;;;;;;;;;;;;;;;11.34;46.81;100137.91;5071439;28;19954;-81
2022/04/24 01:13:59;;;;;;;;;;;;;;;11.29;46.61;100139.84;5073376;28;19916;-81
2022/04/24 01:16:24;;;;;;;;;;;;;;;11.26;46.40;100137.38;5073005;28;19974;-81
2022/04/24 01:18:49;;;;;;;;;;;;;;;11.21;46.83;100137.53;5069042;28;19920;-81
2022/04/24 01:21:15;;;;;;;;;;;;;;;11.17;46.78;100140.34;5070129;28;19916;-81
2022/04/24 01:23:40;;;;;;;;;;;;;;;11.11;46.81;100140.56;5072414;28;19913;-81
2022/04/24 01:26:06;;;;;;;;;;;;;;;11.06;47.08;100131.22;5072787;28;20003;-81
2022/04/24 01:28:31;;;;;;;;;;;;;;;11.04;47.06;100140.81;5067468;28;19927;-81
2022/04/24 01:30:56;;;;;;;;;;;;;;;11.01;47.27;100135.72;5052258;28;19912;-81
2022/04/24 01:33:21;;;;;;;;;;;;;;;10.99;47.20;100137.53;5070898;28;19920;-81
2022/04/24 01:35:46;;;;;;;;;;;;;;;10.99;47.41;100139.31;5071321;28;19927;-81
2022/04/24 01:38:11;;;;;;;;;;;;;;;10.98;47.01;100135.84;5070682;28;19916;-81
2022/04/24 01:40:37;;;;;;;;;;;;;;;10.94;47.57;100144.69;5070359;28;19927;-81
2022/04/24 01:43:02;;;;;;;;;;;;;;;10.93;47.31;100143.84;5073667;28;19912;-81
2022/04/24 01:45:27;;;;;;;;;;;;;;;10.92;47.91;100146.50;5070969;28;19916;-81
2022/04/24 01:47:52;;;;;;;;;;;;;;;10.91;47.77;100147.41;5068957;28;19962;-81
2022/04/24 01:50:18;;;;;;;;;;;;;;;10.88;47.33;100140.56;5070084;28;19912;-81
2022/04/24 01:52:43;;;;;;;;;;;;;;;10.85;47.61;100143.28;5071231;28;20332;-81
2022/04/24 01:55:08;;;;;;;;;;;;;;;10.85;48.30;100142.44;5069218;28;19956;-81
2022/04/24 01:57:33;;;;;;;;;;;;;;;10.81;47.83;100140.84;5072434;28;19912;-81
2022/04/24 01:59:58;;;;;;;;;;;;;;;10.78;47.76;100140.06;5070320;28;19912;-81
2022/04/24 02:02:23;;;;;;;;;;;;;;;10.76;48.04;100139.25;5069181;28;20003;-81
2022/04/24 02:04:49;;;;;;;;;;;;;;;10.77;47.80;100133.16;5071349;28;19916;-81
2022/04/24 02:07:14;;;;;;;;;;;;;;;10.76;48.10;100133.22;5068342;28;21750;-81
2022/04/24 02:09:40;;;;;;;;;;;;;;;10.76;48.09;100141.88;5068615;28;19916;-79
2022/04/24 02:12:05;;;;;;;;;;;;;;;10.75;48.23;100137.59;5068474;28;19912;-81
2022/04/24 02:14:30;;;;;;;;;;;;;;;10.75;48.40;100140.19;5073001;28;19918;-81
2022/04/24 02:16:56;;;;;;;;;;;;;;;10.75;48.02;100145.41;5070282;28;19978;-81
2022/04/24 02:19:21;;;;;;;;;;;;;;;10.75;48.30;100140.19;5069540;28;19920;-81
2022/04/24 02:21:46;;;;;;;;;;;;;;;10.75;48.66;100140.19;5068059;28;19912;-81
2022/04/24 02:24:11;;;;;;;;;;;;;;;10.74;48.44;100135.91;5070875;28;19935;-81
2022/04/24 02:26:36;;;;;;;;;;;;;;;10.75;48.33;100129.78;5071681;28;19916;-81
2022/04/24 02:29:02;;;;;;;;;;;;;;;10.72;49.04;100135.09;5065735;28;19912;-81
2022/04/24 02:31:27;;;;;;;;;;;;;;;10.73;48.41;100143.75;5068377;28;20361;-81
2022/04/24 02:33:52;;;;;;;;;;;;;;;10.71;48.46;100142.94;5069056;28;19912;-81
2022/04/24 02:36:17;;;;;;;;;;;;;;;10.67;49.08;100141.41;5071762;28;19919;-81
2022/04/24 02:38:43;;;;;;;;;;;;;;;10.63;48.61;100132.84;5069299;28;19916;-81
2022/04/24 02:41:08;;;;;;;;;;;;;;;10.59;49.08;100136.47;5067551;28;20286;-81
2022/04/24 02:43:33;;;;;;;;;;;;;;;10.56;49.13;100139.19;5067716;28;19995;-81
2022/04/24 02:45:59;;;;;;;;;;;;;;;10.52;48.92;100137.59;5070051;28;19917;-81
2022/04/24 02:48:27;;;;;;;;;;;;;;;10.48;48.90;100148.09;5070146;28;19920;-81
2022/04/24 02:50:52;;;;;;;;;;;;;;;10.44;48.94;100145.69;5068785;28;20045;-81
2022/04/24 02:53:17;;;;;;;;;;;;;;;10.42;49.21;100148.31;5070397;28;19951;-81
2022/04/24 02:55:42;;;;;;;;;;;;;;;10.41;49.11;100143.19;5068644;28;20014;-81
2022/04/24 02:58:08;;;;;;;;;;;;;;;10.37;49.30;100150.22;5069356;28;20278;-81
2022/04/24 03:00:55;;;;;;;;;;;;;;;10.32;49.22;100145.19;5070565;28;19944;-81
2022/04/24 03:03:18;;;;;;;;;;;;;;;10.28;49.79;100150.53;5071092;28;19913;-81
2022/04/24 03:05:45;;;;;;;;;;;;;;;10.25;49.70;100148.03;5070865;28;20367;-81
2022/04/24 03:08:10;;;;;;;;;;;;;;;10.18;49.66;100144.81;5066933;28;20003;-81
2022/04/24 03:10:35;;;;;;;;;;;;;;;10.15;49.88;100150.97;5067745;28;19998;-81
2022/04/24 03:13:01;;;;;;;;;;;;;;;10.12;50.38;100147.66;5070024;28;19942;-81
2022/04/24 03:15:26;;;;;;;;;;;;;;;10.09;49.77;100146.00;5068856;28;20031;-81
2022/04/24 03:17:54;;;;;;;;;;;;;;;10.04;50.06;100145.31;5069306;28;19952;-81
2022/04/24 03:20:19;;;;;;;;;;;;;;;10.01;50.49;100145.44;5068696;28;19912;-82
2022/04/24 03:22:45;;;;;;;;;;;;;;;9.97;50.44;100147.28;5070873;28;19999;-81
2022/04/24 03:25:10;;;;;;;;;;;;;;;9.96;50.51;100152.53;5069033;28;19943;-81
2022/04/24 03:27:35;;;;;;;;;;;;;;;9.94;50.57;100152.59;5069044;28;19912;-81
2022/04/24 03:30:01;;;;;;;;;;;;;;;9.91;50.53;100152.69;5071850;28;19912;-81
2022/04/24 03:32:29;;;;;;;;;;;;;;;9.86;50.71;100150.25;5067437;28;20006;-81
2022/04/24 03:34:54;;;;;;;;;;;;;;;9.85;50.72;100148.56;5063940;28;19942;-81
2022/04/24 03:37:20;;;;;;;;;;;;;;;9.82;51.12;100146.06;5064562;28;19916;-81
2022/04/24 03:39:45;;;;;;;;;;;;;;;9.81;50.80;100146.94;5071165;28;19959;-81
2022/04/24 03:42:10;;;;;;;;;;;;;;;9.78;51.05;100146.22;5070326;28;19923;-81
2022/04/24 03:44:35;;;;;;;;;;;;;;;9.74;51.08;100153.25;5068454;28;19923;-81
2022/04/24 03:47:00;;;;;;;;;;;;;;;9.69;51.61;100155.16;5067585;28;19919;-81
2022/04/24 03:49:26;;;;;;;;;;;;;;;9.67;51.46;100154.38;5066760;28;19916;-81
2022/04/24 03:51:51;;;;;;;;;;;;;;;9.65;51.81;100150.97;5067586;28;19912;-81
2022/04/24 03:54:17;;;;;;;;;;;;;;;9.63;51.45;100151.03;5067014;28;19944;-81
2022/04/24 03:56:42;;;;;;;;;;;;;;;9.60;51.43;100148.53;5048870;28;19920;-81
2022/04/24 03:59:07;;;;;;;;;;;;;;;9.59;51.57;100154.63;5075118;28;19912;-81
2022/04/24 04:01:32;;;;;;;;;;;;;;;9.56;51.58;100152.94;5071255;28;19912;-81
2022/04/24 04:03:57;;;;;;;;;;;;;;;9.52;52.53;100156.56;5071006;28;19988;-81
2022/04/24 04:06:23;;;;;;;;;;;;;;;9.49;52.19;100148.88;5071452;28;20014;-81
2022/04/24 04:08:48;;;;;;;;;;;;;;;9.46;52.28;100148.97;5071495;28;20275;-81
2022/04/24 04:11:13;;;;;;;;;;;;;;;9.43;52.46;100156.00;5074108;28;19912;-81
2022/04/24 04:13:38;;;;;;;;;;;;;;;9.43;52.57;100154.25;5074584;28;20027;-81
2022/04/24 04:16:04;;;;;;;;;;;;;;;9.37;52.53;100146.69;5071665;28;19916;-81
2022/04/24 04:18:29;;;;;;;;;;;;;;;9.35;52.44;100151.06;5071365;28;19967;-81
2022/04/24 04:20:54;;;;;;;;;;;;;;;9.32;52.50;100149.41;5072437;28;19912;-81
2022/04/24 04:23:20;;;;;;;;;;;;;;;9.30;52.61;100145.16;5074862;28;19916;-81
2022/04/24 04:25:45;;;;;;;;;;;;;;;9.31;52.46;100152.06;5072028;28;19920;-81
2022/04/24 04:28:10;;;;;;;;;;;;;;;9.29;53.29;100153.84;5073999;28;19920;-81
2022/04/24 04:30:35;;;;;;;;;;;;;;;9.28;52.81;100155.59;5072567;28;19967;-81
2022/04/24 04:33:01;;;;;;;;;;;;;;;9.30;52.59;100159.00;5071789;28;19939;-81
2022/04/24 04:35:26;;;;;;;;;;;;;;;9.29;53.05;100156.44;5072601;28;19912;-81
2022/04/24 04:37:51;;;;;;;;;;;;;;;9.26;53.37;100160.81;5074180;28;20270;-81
2022/04/24 04:40:20;;;;;;;;;;;;;;;9.23;53.33;100157.50;5070560;28;19994;-81
2022/04/24 04:42:46;;;;;;;;;;;;;;;9.21;53.37;100164.47;5072178;28;22177;-81
2022/04/24 04:45:11;;;;;;;;;;;;;;;9.20;53.76;100166.22;5066216;28;20371;-81
2022/04/24 04:47:37;;;;;;;;;;;;;;;9.19;53.75;100174.91;5072630;28;20351;-81
2022/04/24 04:50:02;;;;;;;;;;;;;;;9.22;53.65;100179.16;5070011;28;20000;-81
2022/04/24 04:52:28;;;;;;;;;;;;;;;9.20;53.23;100176.59;5073059;28;19916;-81
2022/04/24 04:54:53;;;;;;;;;;;;;;;9.19;53.47;100177.50;5070448;28;19920;-81
2022/04/24 04:57:18;;;;;;;;;;;;;;;9.19;53.80;100182.69;5072391;28;20311;-81
2022/04/24 04:59:44;;;;;;;;;;;;;;;9.20;53.42;100188.72;5069292;28;20379;-81
2022/04/24 05:02:09;;;;;;;;;;;;;;;9.21;53.77;100188.69;5072900;28;20323;-81
2022/04/24 05:04:34;;;;;;;;;;;;;;;9.23;53.72;100186.88;5070652;28;19916;-80
2022/04/24 05:06:59;;;;;;;;;;;;;;;9.22;54.05;100185.16;5067071;28;19919;-81
2022/04/24 05:09:24;;;;;;;;;;;;;;;9.26;53.73;100198.94;5072941;28;20151;-81
2022/04/24 05:11:50;;;;;;;;;;;;;;;9.27;53.87;100198.88;5072467;28;19923;-81
2022/04/24 05:14:15;;;;;;;;;;;;;;;9.29;54.69;100205.75;5072269;28;19913;-81
2022/04/24 05:16:40;;;;;;;;;;;;;;;9.33;54.24;100202.19;5073929;28;19944;-81
2022/04/24 05:19:07;;;;;;;;;;;;;;;9.35;54.31;100211.59;5073830;28;19916;-81
2022/04/24 05:21:32;;;;;;;;;;;;;;;9.39;54.02;100208.03;5072038;28;19913;-81
2022/04/24 05:23:57;;;;;;;;;;;;;;;9.43;53.85;100213.97;5073408;28;19919;-81
2022/04/24 05:26:22;;;;;;;;;;;;;;;9.44;54.24;100210.47;5073797;28;19923;-81
2022/04/24 05:28:48;;;;;;;;;;;;;;;9.49;54.06;100218.97;5072679;28;20389;-81
2022/04/24 05:31:13;;;;;;;;;;;;;;;9.52;53.71;100215.44;5072675;28;19956;-81
2022/04/24 05:33:38;;;;;;;;;;;;;;;9.57;54.67;100216.13;5071392;28;19912;-81
2022/04/24 05:36:06;;;;;;;;;;;;;;;9.60;53.85;100226.44;5071878;28;19935;-81
2022/04/24 05:38:32;;;;;;;;;;;;;;;9.63;53.83;100217.69;5071642;28;19912;-81
2022/04/24 05:40:57;;;;;;;;;;;;;;;9.66;53.84;100220.19;5073439;28;19931;-81
2022/04/24 05:43:22;;;;;;;;;;;;;;;9.70;53.80;100222.63;5073707;28;20292;-81
2022/04/24 05:45:48;;;;;;;;;;;;;;;9.74;53.93;100212.97;5072003;28;20291;-81
2022/04/24 05:48:13;;;;;;;;;;;;;;;9.74;54.20;100219.94;5073895;28;20050;-81
2022/04/24 05:50:38;;;;;;;;;;;;;;;9.79;54.20;100225.84;5072902;28;19920;-81
2022/04/24 05:53:03;;;;;;;;;;;;;;;9.84;53.92;100231.72;5044741;28;20007;-81
2022/04/24 05:55:29;;;;;;;;;;;;;;;9.87;53.86;100219.50;5072659;28;19927;-81
2022/04/24 05:57:54;;;;;;;;;;;;;;;9.92;53.90;100228.88;5073074;28;20299;-81
2022/04/24 06:00:20;;;;;;;;;;;;;;;9.95;53.77;100231.38;5071964;28;20011;-81
2022/04/24 06:02:45;;;;;;;;;;;;;;;9.98;53.77;100229.53;5069156;28;20061;-81
2022/04/24 06:05:11;;;;;;;;;;;;;;;9.99;53.72;100235.56;5070537;28;19920;-81
2022/04/24 06:07:37;;;;;;;;;;;;;;;10.01;53.74;100231.19;5068896;28;20019;-81
2022/04/24 06:10:03;;;;;;;;;;;;;;;10.06;53.60;100231.03;5070509;28;19990;-81
2022/04/24 06:12:28;;;;;;;;;;;;;;;10.12;53.77;100228.22;5071398;28;19912;-81
2022/04/24 06:14:53;;;;;;;;;;;;;;;10.17;53.61;100242.75;5071042;28;19967;-81
2022/04/24 06:17:18;;;;;;;;;;;;;;;10.18;54.00;100239.25;5070694;28;19912;-81
2022/04/24 06:19:43;;;;;;;;;;;;;;;10.24;53.66;100245.16;5069574;28;19971;-81
2022/04/24 06:22:09;;;;;;;;;;;;;;;10.25;53.48;100244.22;5070652;28;19965;-81
2022/04/24 06:24:34;;;;;;;;;;;;;;;10.27;53.59;100232.03;5071904;28;19923;-81
2022/04/24 06:26:59;;;;;;;;;;;;;;;10.32;53.20;100235.34;5070188;28;19912;-81
2022/04/24 06:29:24;;;;;;;;;;;;;;;10.33;53.48;100232.66;5050854;28;19920;-81
2022/04/24 06:31:49;;;;;;;;;;;;;;;10.38;53.46;100232.56;5068889;28;19978;-81
2022/04/24 06:34:15;;;;;;;;;;;;;;;10.40;53.08;100241.16;5064796;28;20023;-82
2022/04/24 06:36:40;;;;;;;;;;;;;;;10.46;53.01;100237.50;5044299;28;19935;-81
2022/04/24 06:39:05;;;;;;;;;;;;;;;10.50;53.11;100240.84;5063140;28;19986;-81
2022/04/24 06:41:30;;;;;;;;;;;;;;;10.53;52.94;100243.34;5063624;28;19920;-82
2022/04/24 06:43:55;;;;;;;;;;;;;;;10.60;53.10;100239.59;5062781;28;20001;-81
2022/04/24 06:46:21;;;;;;;;;;;;;;;10.66;53.06;100244.59;5063758;28;19931;-82
2022/04/24 06:48:46;;;;;;;;;;;;;;;10.72;52.89;100248.72;5063345;28;20342;-82
2022/04/24 06:51:11;;;;;;;;;;;;;;;10.75;52.96;100252.06;5063748;28;20331;-82
2022/04/24 06:53:38;;;;;;;;;;;;;;;10.78;52.78;100253.72;5063663;28;19916;-82
2022/04/24 06:56:03;;;;;;;;;;;;;;;10.82;52.71;100254.44;5063935;28;20283;-83
2022/04/24 06:58:28;;;;;;;;;;;;;;;10.87;52.78;100257.72;5063080;28;20382;-83
2022/04/24 07:00:54;;;;;;;;;;;;;;;10.92;52.82;100258.41;5063367;28;19920;-83
2022/04/24 07:03:21;;;;;;;;;;;;;;;10.98;53.01;100252.13;5063123;28;19932;-82
2022/04/24 07:05:46;;;;;;;;;;;;;;;11.06;52.43;100258.75;5062560;28;20393;-83
2022/04/24 07:08:11;;;;;;;;;;;;;;;11.06;52.25;100256.16;5063864;28;19942;-82
2022/04/24 07:10:37;;;;;;;;;;;;;;;11.08;52.34;100254.34;5062967;28;20013;-82
2022/04/24 07:13:03;;;;;;;;;;;;;;;11.11;52.05;100253.38;5064486;28;19916;-82
2022/04/24 07:15:30;;;;;;;;;;;;;;;11.16;52.02;100258.41;5062318;28;19916;-82
2022/04/24 07:17:56;;;;;;;;;;;;;;;11.19;51.67;100255.69;5062731;28;19950;-82
2022/04/24 07:20:21;;;;;;;;;;;;;;;11.22;51.91;100263.38;5063838;28;19920;-82
2022/04/24 07:22:50;;;;;;;;;;;;;;;11.26;51.83;100264.09;5064303;28;19920;-82
2022/04/24 07:25:19;;;;;;;;;;;;;;;11.32;51.89;100267.31;5062632;28;19939;-82
2022/04/24 07:27:45;;;;;;;;;;;;;;;11.37;51.81;100269.75;5063689;28;20195;-82
2022/04/24 07:30:14;;;;;;;;;;;;;;;11.42;51.69;100270.44;5063118;28;20453;-82
2022/04/24 07:32:43;;;;;;;;;;;;;;;11.47;51.42;100272.84;5062552;28;19923;-81
2022/04/24 07:35:16;;;;;;;;;;;;;;;11.49;51.46;100269.28;5064997;28;19920;-81
2022/04/24 07:37:42;;;;;;;;;;;;;;;11.54;51.47;100269.09;5064814;28;19926;-82
2022/04/24 07:40:08;;;;;;;;;;;;;;;11.57;51.19;100276.81;5063481;28;19916;-82
2022/04/24 07:42:43;;;;;;;;;;;;;;;11.61;51.11;100275.78;5067074;28;19920;-82
2022/04/24 07:45:08;;;;;;;;;;;;;;;11.64;51.21;100273.03;5066340;28;19920;-81
2022/04/24 07:47:33;;;;;;;;;;;;;;;11.67;51.07;100265.09;5067087;28;19917;-82
2022/04/24 07:49:59;;;;;;;;;;;;;;;11.72;51.20;100267.53;5064528;28;19920;-82
2022/04/24 07:52:24;;;;;;;;;;;;;;;11.80;50.98;100273.28;5065509;28;20240;-82
2022/04/24 07:54:51;;;;;;;;;;;;;;;11.86;50.89;100263.53;5064440;28;19927;-82
2022/04/24 07:57:16;;;;;;;;;;;;;;;11.90;50.86;100267.69;5064789;28;19922;-82
2022/04/24 07:59:42;;;;;;;;;;;;;;;11.95;50.77;100264.00;5064356;28;19920;-82
2022/04/24 08:02:07;;;;;;;;;;;;;;;12.03;50.65;100268.09;5063862;28;19970;-82
2022/04/24 08:04:32;;;;;;;;;;;;;;;12.08;50.62;100276.56;5066365;28;19927;-82
2022/04/24 08:06:57;;;;;;;;;;;;;;;12.11;50.48;100273.84;5064266;28;19928;-81
2022/04/24 08:09:23;;;;;;;;;;;;;;;12.17;50.33;100278.78;5064051;28;19977;-80
2022/04/24 08:11:48;;;;;;;;;;;;;;;12.21;50.31;100275.16;5063942;28;20027;-82
2022/04/24 08:14:13;;;;;;;;;;;;;;;12.29;50.34;100273.06;5061610;28;20143;-82
2022/04/24 08:16:38;;;;;;;;;;;;;;;12.35;49.99;100276.31;5065934;28;19923;-82
2022/04/24 08:19:03;;;;;;;;;;;;;;;12.40;50.38;100276.97;5065113;28;20007;-82
2022/04/24 08:21:29;;;;;;;;;;;;;;;12.48;50.71;100287.09;5062965;28;20379;-83
2022/04/24 08:23:54;;;;;;;;;;;;;;;12.55;50.02;100284.16;5054328;28;20007;-82
2022/04/24 08:26:19;;;;;;;;;;;;;;;12.62;49.77;100286.50;5065496;28;19928;-83
2022/04/24 08:28:44;;;;;;;;;;;;;;;12.68;49.80;100278.38;5064416;28;19920;-82
2022/04/24 08:31:09;;;;;;;;;;;;;;;12.74;50.04;100273.75;5065520;28;19924;-81
2022/04/24 08:33:35;;;;;;;;;;;;;;;12.79;49.81;100270.09;5062805;28;19924;-81
2022/04/24 08:36:00;;;;;;;;;;;;;;;12.83;49.54;100275.09;5064617;28;19921;-82
2022/04/24 08:38:26;;;;;;;;;;;;;;;12.87;49.33;100278.44;5062363;28;19955;-82
2022/04/24 08:40:52;;;;;;;;;;;;;;;12.89;49.21;100276.63;5063300;28;19920;-82
2022/04/24 08:43:18;;;;;;;;;;;;;;;12.92;49.28;100275.63;5064201;28;19974;-82
2022/04/24 08:45:46;;;;;;;;;;;;;;;12.97;49.04;100284.09;5064521;28;19924;-82
2022/04/24 08:48:11;;;;;;;;;;;;;;;13.00;49.00;100281.34;5061828;28;19917;-81
2022/04/24 08:50:36;;;;;;;;;;;;;;;13.02;48.96;100287.34;5053904;28;19927;-83
2022/04/24 08:53:02;;;;;;;;;;;;;;;13.06;48.65;100284.50;5058492;28;19916;-82
2022/04/24 08:55:28;;;;;;;;;;;;;;;13.09;48.12;100285.28;5060725;28;19916;-82
2022/04/24 08:57:54;;;;;;;;;;;;;;;13.08;48.53;100287.06;5062864;28;19948;-82
2022/04/24 09:00:19;;;;;;;;;;;;;;;13.12;48.33;100293.00;5066041;28;20383;-83
2022/04/24 09:02:46;;;;;;;;;;;;;;;13.14;48.68;100291.16;5065833;28;19920;-83
2022/04/24 09:05:11;;;;;;;;;;;;;;;13.21;48.97;100287.38;5062305;28;19920;-82
2022/04/24 09:07:36;;;;;;;;;;;;;;;13.28;48.49;100288.75;5057825;28;20441;-82
2022/04/24 09:10:03;;;;;;;;;;;;;;;13.36;48.09;100296.25;5063467;28;19916;-82
2022/04/24 09:12:32;;;;;;;;;;;;;;;13.38;47.95;100289.19;5063335;28;20282;-83
2022/04/24 09:14:58;;;;;;;;;;;;;;;13.42;48.19;100300.38;5063315;28;20015;-82
2022/04/24 09:17:27;;;;;;;;;;;;;;;13.48;47.95;100295.72;5062505;28;20042;-83
2022/04/24 09:19:53;;;;;;;;;;;;;;;13.56;48.12;100294.50;5062081;28;21211;-83
2022/04/24 09:22:19;;;;;;;;;;;;;;;13.63;48.01;100298.53;5063834;28;19963;-83
2022/04/24 09:24:45;;;;;;;;;;;;;;;13.69;48.23;100294.78;5063776;28;20379;-83
2022/04/24 09:27:11;;;;;;;;;;;;;;;13.74;48.21;100284.97;5060955;28;20276;-82
2022/04/24 09:29:37;;;;;;;;;;;;;;;13.82;48.05;100293.25;5062620;28;21085;-83
2022/04/24 09:32:08;;;;;;;;;;;;;;;13.88;48.08;100292.97;5062907;28;20366;-83
2022/04/24 09:34:34;;;;;;;;;;;;;;;13.92;47.89;100296.28;5047548;28;19916;-83
2022/04/24 09:37:04;;;;;;;;;;;;;;;13.96;47.82;100293.44;5063580;28;19917;-83
2022/04/24 09:39:30;;;;;;;;;;;;;;;14.03;47.86;100301.00;5062955;28;19923;-82
2022/04/24 09:42:01;;;;;;;;;;;;;;;14.06;47.57;100295.63;5064016;28;19916;-83
2022/04/24 09:44:34;;;;;;;;;;;;;;;14.08;47.77;100289.38;5063145;28;20363;-83
2022/04/24 09:46:59;;;;;;;;;;;;;;;14.11;47.82;100294.47;5064003;28;20015;-83
2022/04/24 09:49:25;;;;;;;;;;;;;;;14.16;47.40;100285.56;5061704;28;20031;-83
2022/04/24 09:51:50;;;;;;;;;;;;;;;14.17;47.24;100292.47;5062071;28;19921;-83
2022/04/24 09:54:16;;;;;;;;;;;;;;;14.19;47.21;100282.75;5061961;28;20269;-83
2022/04/24 09:56:41;;;;;;;;;;;;;;;14.23;47.20;100286.91;5060675;28;19920;-83
2022/04/24 09:59:08;;;;;;;;;;;;;;;14.26;46.71;100292.84;5061346;28;20002;-83
2022/04/24 10:01:33;;;;;;;;;;;;;;;14.27;47.16;100294.53;5060306;28;19999;-83
2022/04/24 10:03:59;;;;;;;;;;;;;;;14.34;47.19;100289.88;5062909;28;20015;-83
2022/04/24 10:06:24;;;;;;;;;;;;;;;14.37;47.15;100287.06;5059295;28;19931;-83
2022/04/24 10:08:51;;;;;;;;;;;;;;;14.42;47.31;100290.31;5060557;28;19920;-86
2022/04/24 10:11:16;;;;;;;;;;;;;;;14.50;47.00;100297.75;5064509;28;19916;-84
2022/04/24 10:13:43;;;;;;;;;;;;;;;14.54;46.83;100295.84;5064800;28;20030;-84
2022/04/24 10:16:27;;;;;;;;;;;;;;;14.55;47.06;100292.28;5062082;28;19999;-83
2022/04/24 10:18:53;;;;;;;;;;;;;;;14.62;47.07;100298.91;5064677;28;19935;-83
2022/04/24 10:21:36;;;;;;;;;;;;;;;14.67;47.02;100296.91;5063602;28;19920;-83
2022/04/24 10:24:09;;;;;;;;;;;;;;;14.71;46.74;100293.22;5063652;28;20279;-83
2022/04/24 10:26:35;;;;;;;;;;;;;;;14.78;46.81;100290.28;5062257;28;20100;-83
2022/04/24 10:29:01;;;;;;;;;;;;;;;14.84;46.67;100293.44;5064864;28;20002;-85
2022/04/24 10:31:27;;;;;;;;;;;;;;;14.84;46.10;100287.38;5061943;28;19928;-83
2022/04/24 10:33:54;;;;;;;;;;;;;;;14.83;46.11;100288.28;5040377;28;19923;-84
2022/04/24 10:36:20;;;;;;;;;;;;;;;14.83;45.86;100286.50;5062777;28;19923;-83
2022/04/24 10:38:49;;;;;;;;;;;;;;;14.88;46.16;100294.09;5064338;28;19916;-82
2022/04/24 10:41:15;;;;;;;;;;;;;;;14.92;46.45;100290.41;5064165;28;20340;-84
2022/04/24 10:43:51;;;;;;;;;;;;;;;15.00;46.36;100287.38;5063993;28;19920;-82
2022/04/24 10:46:27;;;;;;;;;;;;;;;15.02;46.39;100291.63;5061076;28;19927;-84
2022/04/24 10:48:53;;;;;;;;;;;;;;;15.05;46.12;100295.84;5063835;28;19926;-84
2022/04/24 10:51:29;;;;;;;;;;;;;;;15.03;46.34;100297.69;5064032;28;19924;-84
2022/04/24 10:53:57;;;;;;;;;;;;;;;15.03;46.17;100293.28;5057729;28;20662;-83
2022/04/24 10:56:22;;;;;;;;;;;;;;;15.05;46.48;100295.84;5063636;28;19917;-83
2022/04/24 10:58:50;;;;;;;;;;;;;;;15.09;46.04;100296.53;5060883;28;19920;-83
2022/04/24 11:01:15;;;;;;;;;;;;;;;15.11;45.32;100295.53;5059447;28;20037;-84
2022/04/24 11:03:42;;;;;;;;;;;;;;;15.10;45.09;100293.84;5059143;28;20398;-85
2022/04/24 11:06:23;;;;;;;;;;;;;;;15.11;45.37;100297.28;5057629;28;20091;-84
2022/04/24 11:08:49;;;;;;;;;;;;;;;15.20;45.56;100288.91;5062113;28;20294;-84
2022/04/24 11:11:15;;;;;;;;;;;;;;;15.26;45.61;100296.47;5063788;28;20371;-84
2022/04/24 11:13:41;;;;;;;;;;;;;;;15.32;45.63;100293.53;5059971;28;20355;-83
2022/04/24 11:16:09;;;;;;;;;;;;;;;15.30;45.32;100290.13;5042627;28;20368;-83
2022/04/24 11:18:36;;;;;;;;;;;;;;;15.28;45.05;100291.16;5058401;28;19932;-84
2022/04/24 11:21:06;;;;;;;;;;;;;;;15.32;44.74;100288.28;5041161;28;19920;-82
2022/04/24 11:23:32;;;;;;;;;;;;;;;15.39;45.22;100298.41;5058360;28;19961;-85
2022/04/24 11:25:58;;;;;;;;;;;;;;;15.45;44.84;100298.09;5058526;28;19924;-84
2022/04/24 11:28:39;;;;;;;;;;;;;;;15.54;44.69;100294.94;5059215;28;19920;-84
2022/04/24 11:31:13;;;;;;;;;;;;;;;15.57;43.97;100297.41;5059366;28;19943;-84
2022/04/24 11:33:49;;;;;;;;;;;;;;;15.56;43.75;100289.63;5059912;28;19920;-85
2022/04/24 11:36:14;;;;;;;;;;;;;;;15.56;43.72;100300.94;5056189;28;19970;-83
2022/04/24 11:38:40;;;;;;;;;;;;;;;15.53;44.15;100290.66;5062280;28;19916;-82
2022/04/24 11:41:05;;;;;;;;;;;;;;;15.51;44.44;100287.25;5060759;28;20334;-85
2022/04/24 11:43:30;;;;;;;;;;;;;;;15.62;44.75;100284.06;5062230;28;21007;-85
2022/04/24 11:51:23;;;;;;;;;;;;;;;15.75;43.59;100286.81;5060687;28;19931;-84
2022/04/24 11:53:49;;;;;;;;;;;;;;;15.75;43.69;100278.94;5061412;28;19920;-83
2022/04/24 11:56:15;;;;;;;;;;;;;;;15.70;43.45;100291.50;5062644;28;19998;-84
2022/04/24 11:58:41;;;;;;;;;;;;;;;15.65;43.21;100288.28;5057066;28;19916;-85
2022/04/24 12:01:08;;;;;;;;;;;;;;;15.60;43.57;100291.97;5059607;28;19916;-84
2022/04/24 12:03:34;;;;;;;;;;;;;;;15.68;44.02;100293.34;5062975;28;19920;-84
2022/04/24 12:06:06;;;;;;;;;;;;;;;15.84;43.95;100288.06;5060474;28;20189;-84
2022/04/24 12:08:49;;;;;;;;;;;;;;;15.85;43.53;100295.91;5058025;28;19920;-84
2022/04/24 12:11:28;;;;;;;;;;;;;;;15.81;43.56;100294.34;5061390;28;19916;-84
2022/04/24 12:14:02;;;;;;;;;;;;;;;15.88;43.44;100295.72;5056533;28;19962;-83
2022/04/24 12:16:27;;;;;;;;;;;;;;;15.89;43.36;100297.38;5057211;28;19951;-83
2022/04/24 12:18:56;;;;;;;;;;;;;;;15.92;43.19;100296.38;5059749;28;20369;-83
2022/04/24 12:21:22;;;;;;;;;;;;;;;15.97;42.58;100291.69;5063412;28;20240;-83
2022/04/24 12:23:53;;;;;;;;;;;;;;;15.98;41.87;100306.50;5062855;28;19923;-84
2022/04/24 12:26:19;;;;;;;;;;;;;;;15.88;42.22;100300.97;5063094;28;19924;-84
2022/04/24 12:28:45;;;;;;;;;;;;;;;15.77;42.61;100304.16;5061990;28;19944;-84
2022/04/24 12:31:23;;;;;;;;;;;;;;;15.80;42.73;100308.38;5066437;28;19978;-84
2022/04/24 12:33:51;;;;;;;;;;;;;;;15.91;42.02;100311.25;5065182;28;19920;-84
2022/04/24 12:36:16;;;;;;;;;;;;;;;15.96;42.26;100310.16;5064923;28;19923;-83
2022/04/24 12:38:52;;;;;;;;;;;;;;;16.03;42.50;100308.91;5062416;28;19920;-83